createdAt,value
2023-04-24T06:26:35.045Z,9.60
2023-04-24T06:30:40.959Z,9.60
2023-04-24T06:34:47.528Z,9.60
2023-04-24T06:38:53.741Z,9.60
2023-04-24T06:43:09.065Z,9.60
2023-04-24T06:47:26.616Z,9.60
2023-04-24T06:51:36.432Z,9.60
2023-04-24T06:55:59.078Z,9.60
2023-04-24T07:00:23.603Z,9.70
2023-04-24T07:09:20.042Z,9.90
2023-04-24T07:13:47.640Z,9.90
2023-04-24T07:23:01.354Z,9.90
2023-04-24T07:27:08.924Z,9.90
2023-04-24T07:31:14.732Z,9.90
2023-04-24T07:35:22.408Z,9.90
2023-04-24T07:39:31.530Z,9.90
2023-04-24T07:43:36.176Z,9.90
2023-04-24T07:47:45.435Z,9.90
2023-04-24T07:52:07.623Z,9.90
2023-04-24T07:56:32.487Z,10.00
2023-04-24T08:00:41.157Z,10.00
2023-04-24T08:04:47.702Z,10.10
2023-04-24T08:08:55.673Z,10.00
2023-04-24T08:17:23.722Z,10.20
2023-04-24T08:21:32.427Z,10.20
2023-04-24T08:25:48.552Z,10.20
2023-04-24T08:29:56.842Z,10.20
2023-04-24T08:34:13.620Z,10.20
2023-04-24T08:38:20.173Z,10.40
2023-04-24T08:42:25.691Z,10.50
2023-04-24T08:46:34.021Z,10.50
2023-04-24T08:50:39.597Z,10.60
2023-04-24T08:54:46.790Z,10.70
2023-04-24T08:58:53.405Z,10.80
2023-04-24T09:03:02.154Z,10.90
2023-04-24T09:07:10.276Z,11.10
2023-04-24T09:11:16.055Z,11.20
2023-04-24T09:15:21.882Z,11.10
2023-04-24T09:19:29.077Z,11.10
2023-04-24T09:23:44.139Z,11.00
2023-04-24T09:27:52.895Z,11.10
2023-04-24T09:31:58.809Z,11.10
2023-04-24T09:36:07.440Z,10.90
2023-04-24T09:40:17.987Z,10.80
2023-04-24T09:44:25.728Z,10.70
2023-04-24T09:48:37.466Z,10.80
2023-04-24T09:52:50.937Z,11.10
2023-04-24T09:57:00.157Z,11.20
2023-04-24T10:01:08.061Z,11.30
2023-04-24T10:05:17.252Z,11.40
2023-04-24T10:09:27.530Z,11.60
2023-04-24T10:13:36.860Z,11.60
2023-04-24T10:17:43.026Z,11.60
2023-04-24T10:21:48.302Z,11.70
2023-04-24T10:25:55.743Z,11.80
2023-04-24T10:30:04.093Z,11.90
2023-04-24T10:34:23.581Z,12.10
2023-04-24T10:38:30.857Z,12.20
2023-04-24T10:42:37.430Z,12.00
2023-04-24T10:46:47.057Z,12.00
2023-04-24T10:50:56.678Z,12.00
2023-04-24T10:55:09.250Z,12.20
2023-04-24T10:59:40.056Z,12.30
2023-04-24T11:04:11.979Z,12.50
2023-04-24T11:08:20.667Z,12.90
2023-04-24T11:12:25.621Z,13.00
2023-04-24T11:16:34.442Z,13.00
2023-04-24T11:20:38.297Z,12.90
2023-04-24T11:24:56.993Z,12.90
2023-04-24T11:29:10.184Z,13.00
2023-04-24T11:33:23.249Z,13.00
2023-04-24T11:37:34.882Z,12.90
2023-04-24T11:41:38.822Z,13.00
2023-04-24T11:45:53.259Z,13.10
2023-04-24T11:49:59.149Z,13.20
2023-04-24T11:54:04.785Z,13.20
2023-04-24T11:58:09.502Z,13.30
2023-04-24T12:02:24.457Z,13.40
2023-04-24T12:06:32.078Z,13.70
2023-04-24T12:10:39.196Z,13.60
2023-04-24T12:14:50.928Z,13.60
2023-04-24T12:19:02.031Z,13.70
2023-04-24T12:23:09.883Z,13.90
2023-04-24T12:27:24.855Z,13.90
2023-04-24T12:31:31.999Z,13.80
2023-04-24T12:35:38.707Z,13.30
2023-04-24T12:40:04.304Z,12.80
2023-04-24T12:44:15.214Z,12.80
2023-04-24T12:48:25.004Z,13.00
2023-04-24T12:57:13.438Z,13.20
2023-04-24T13:01:34.861Z,13.20
2023-04-24T13:05:45.036Z,13.50
2023-04-24T13:09:51.068Z,14.10
2023-04-24T13:13:58.010Z,14.30
2023-04-24T13:18:02.106Z,14.40
2023-04-24T13:22:06.509Z,14.20
2023-04-24T13:26:13.192Z,13.90
2023-04-24T13:30:19.044Z,13.80
2023-04-24T13:34:23.461Z,13.40
2023-04-24T13:38:28.028Z,13.20
2023-04-24T13:42:34.420Z,12.50
2023-04-24T13:46:39.593Z,11.30
2023-04-24T13:50:44.109Z,11.00
2023-04-24T13:54:48.481Z,10.90
2023-04-24T13:58:54.338Z,10.90
2023-04-24T14:03:04.522Z,10.90
2023-04-24T14:07:20.131Z,10.90
2023-04-24T14:11:24.118Z,10.70
2023-04-24T14:15:32.192Z,10.50
2023-04-24T14:19:42.740Z,10.60
2023-04-24T14:23:52.437Z,10.70
2023-04-24T14:28:08.393Z,10.80
2023-04-24T14:32:18.040Z,11.00
2023-04-24T14:36:26.944Z,10.90
2023-04-24T14:44:44.699Z,10.70
2023-04-24T14:48:50.184Z,10.70
2023-04-24T14:52:58.674Z,10.00
2023-04-24T14:57:03.003Z,9.60
2023-04-24T15:01:07.651Z,9.50
2023-04-24T15:05:18.399Z,9.40
2023-04-24T15:09:44.319Z,9.30
2023-04-24T15:13:55.453Z,9.40
2023-04-24T15:22:59.682Z,9.50
2023-04-24T15:27:19.919Z,9.60
2023-04-24T15:31:26.311Z,9.60
2023-04-24T15:35:33.715Z,9.80
2023-04-24T15:39:40.967Z,9.90
2023-04-24T15:43:50.510Z,10.00
2023-04-24T15:47:58.122Z,9.90
2023-04-24T15:52:08.411Z,9.90
2023-04-24T15:56:16.948Z,10.10
2023-04-24T16:00:30.384Z,10.10
2023-04-24T16:04:41.834Z,10.10
2023-04-24T16:08:55.474Z,10.10
2023-04-24T16:13:11.764Z,10.20
2023-04-24T16:17:19.949Z,10.20
2023-04-24T16:21:31.893Z,10.30
2023-04-24T16:25:48.475Z,10.30
2023-04-24T16:29:54.840Z,10.30
2023-04-24T16:34:03.635Z,10.30
2023-04-24T16:38:11.736Z,10.20
2023-04-24T16:42:22.666Z,10.10
2023-04-24T16:46:43.838Z,9.90
2023-04-24T16:50:51.314Z,9.80
2023-04-24T16:54:58.635Z,9.70
2023-04-24T16:59:03.806Z,9.60
2023-04-24T17:03:12.664Z,9.50
2023-04-24T17:07:22.268Z,9.50
2023-04-24T17:11:28.440Z,9.50
2023-04-24T17:15:44.889Z,9.40
2023-04-24T17:19:51.967Z,9.30
2023-04-24T17:24:18.932Z,9.20
2023-04-24T17:28:43.196Z,9.10
2023-04-24T17:32:47.675Z,9.00
2023-04-24T17:36:57.065Z,8.90
2023-04-24T17:41:10.116Z,8.80
2023-04-24T17:45:16.987Z,8.80
2023-04-24T17:49:23.159Z,8.80
2023-04-24T17:53:27.938Z,8.80
2023-04-24T17:57:39.340Z,8.70
2023-04-24T18:01:48.555Z,8.60
2023-04-24T18:05:55.437Z,8.60
2023-04-24T18:10:03.774Z,8.60
2023-04-24T18:14:14.523Z,8.60
2023-04-24T18:18:20.762Z,8.60
2023-04-24T18:22:29.457Z,8.60
2023-04-24T18:26:38.221Z,8.50
2023-04-24T18:30:45.300Z,8.50
2023-04-24T18:34:58.140Z,8.50
2023-04-24T18:39:07.156Z,8.50
2023-04-24T18:43:11.277Z,8.50
2023-04-24T18:47:19.249Z,8.40
2023-04-24T18:51:27.732Z,8.40
2023-04-24T18:55:36.247Z,8.30
2023-04-24T18:59:43.182Z,8.30
2023-04-24T19:03:51.728Z,8.30
2023-04-24T19:07:58.768Z,8.30
2023-04-24T19:12:14.138Z,8.30
2023-04-24T19:16:21.091Z,8.20
2023-04-24T19:20:29.778Z,8.20
2023-04-24T19:24:36.123Z,8.10
2023-04-24T19:28:50.283Z,8.10
2023-04-24T19:32:55.207Z,8.10
2023-04-24T19:37:01.798Z,8.10
2023-04-24T19:41:06.206Z,8.00
2023-04-24T19:45:11.237Z,8.00
2023-04-24T19:49:17.437Z,7.90
2023-04-24T19:53:24.683Z,7.80
2023-04-24T19:57:29.961Z,7.80
2023-04-24T20:01:34.595Z,7.80
2023-04-24T20:05:40.675Z,7.70
2023-04-24T20:09:48.927Z,7.70
2023-04-24T20:13:54.580Z,7.60
2023-04-24T20:18:12.533Z,7.50
2023-04-24T20:22:19.505Z,7.50
2023-04-24T20:26:27.152Z,7.40
2023-04-24T20:30:41.783Z,7.40
2023-04-24T20:34:53.917Z,7.30
2023-04-24T20:39:00.190Z,7.30
2023-04-24T20:43:06.362Z,7.30
2023-04-24T20:47:12.059Z,7.10
2023-04-24T20:51:21.333Z,7.10
2023-04-24T20:55:44.014Z,7.10
2023-04-24T20:59:55.246Z,7.00
2023-04-24T21:04:01.436Z,6.90
2023-04-24T21:08:07.116Z,6.90
2023-04-24T21:12:12.917Z,6.90
2023-04-24T21:16:24.609Z,6.90
2023-04-24T21:20:32.154Z,6.80
2023-04-24T21:24:38.436Z,6.80
2023-04-24T21:28:47.849Z,6.70
2023-04-24T21:32:56.211Z,6.60
2023-04-24T21:37:16.250Z,6.50
2023-04-24T21:41:22.306Z,6.50
2023-04-24T21:45:28.866Z,6.50
2023-04-24T21:49:38.172Z,6.50
2023-04-24T21:53:46.667Z,6.50
2023-04-24T21:57:58.578Z,6.50
2023-04-24T22:02:27.527Z,6.50
2023-04-24T22:06:40.552Z,6.50
2023-04-24T22:10:46.979Z,6.40
2023-04-24T22:14:57.020Z,6.30
2023-04-24T22:19:05.539Z,6.30
2023-04-24T22:23:28.565Z,6.30
2023-04-24T22:27:35.735Z,6.20
2023-04-24T22:32:01.519Z,6.20
2023-04-24T22:36:11.462Z,6.20
2023-04-24T22:40:24.851Z,6.20
2023-04-24T22:44:43.052Z,6.20
2023-04-24T22:48:49.833Z,6.10
2023-04-24T22:53:03.710Z,6.10
2023-04-24T22:57:16.986Z,6.20
2023-04-24T23:01:28.320Z,6.20
2023-04-24T23:05:34.074Z,6.20
2023-04-24T23:09:40.061Z,6.20
2023-04-24T23:14:02.846Z,6.10
2023-04-24T23:18:14.114Z,6.10
2023-04-24T23:22:19.806Z,6.10
2023-04-24T23:26:31.841Z,6.10
2023-04-24T23:30:45.240Z,6.10
2023-04-24T23:35:10.093Z,6.10
2023-04-24T23:39:18.378Z,6.10
2023-04-24T23:43:23.379Z,6.10
2023-04-24T23:47:31.895Z,6.00
2023-04-24T23:51:40.631Z,6.00
